Relevés horaires Beauvechain (Belgique)


Relevés horaires à Beauvechain - Mardi 06 Juill. 2021
Heure UTC1 Température [°C] Vent [km/h] Hum. [%] Pres.4 [hPa] Visi. [Km] Nébu. [octa] Préc.5 [mm] Cond.
2m. Res. Ros. Dir.2 Vit. Moy. Raf.3
23:00 14.9 14.9 11.8 NNO 1.9 -- 3.7 82 1011.7(0.8/3h) 20 -- -- --
22:00 14.8 14.8 11.5 NNO 1.9 -- 5.6 81 1011.6(1.2/3h) 20 -- -- --
21:00 14.9 14.9 11.6 NNO 1.9 -- 13.0 81 1011.6(1.5/3h) 20 -- -- --
20:00 15.7 15.7 11.6 SSO 3.7 -- 9.3 77 1010.8(1.4/3h) 20 -- -- --
19:00 16.7 16.7 11.7 SO 5.6 -- 13.0 72 1010.2(1.5/3h) 20 -- -- --
18:00 17.2 17.2 12.7 SO 7.4 -- 31.5 75 1009.8(1.4/3h) 20 -- 0.7/12h
NA
17:00 16.1 16.1 13.3 SO 7.4 -- 31.5 83 1009.3(1.7/3h) 20 -- -- NA
16:00 18.3 18.3 11.6 SO 11.1 -- 25.9 65 1008.6(1.4/3h) 20 -- -- --
15:00 19.3 19.3 11.9 SSO 16.7 -- 31.5 62 1008.2(1.9/3h) 20 7/8 -- --
14:00 18.3 17.9 10.7 SSO 18.5 -- 29.6 61 1007.6(1.8/3h) 20 8/8 -- --
13:00 18.0 17.4 10.4 SSO 20.4 -- 31.5 61 1007.1(2.1/3h) 20 6/8 -- --
12:00 18.1 17.6 10.4 SSO 20.4 -- 35.2 61 1006.3(2.0/3h) 20 6/8 -- --
11:00 18.2 17.7 10.5 SO 20.4 -- 31.5 61 1005.7(2.2/3h) 20 6/8 -- --
10:00 18.3 17.9 10.4 SO 18.5 -- 29.6 60 1005(2.0/3h) 20 6/8 -- --
09:00 17.4 16.7 11.1 SO 20.4 -- 33.3 66 1004.2(1.6/3h) 20 6/8 -- --
08:00 18.7 18.7 13.7 SSO 13.0 -- 27.8 73 1003.2(0.8/3h) 20 6/8 -- --
07:00 17.7 17.6 13.7 S 13.0 -- 27.8 77 1003.4(0.3/3h) 20 8/8 -- --
06:00 18.2 18.2 14.7 S 13.0 -- 24.1 80 1002.3(0.7/3h) 20 8/8 0.4/12h
--
05:00 18.7 18.7 15.3 S 14.8 -- 22.2 81 1002.3(-0.3/3h) 20 -- -- --
04:00 18.3 18.3 15.3 S 13.0 -- 18.5 83 1002.3(-1.1/3h) 20 -- -- --
03:00 18.1 18.1 15.0 SSE 9.3 -- 14.8 82 1001.7(-3.0/3h) 20 -- -- NA
02:00 17.0 17.0 15.4 SE 5.6 -- 11.1 90 1002.8(-2.6/3h) 20 -- -- Il y a de la pluie faible et continue à la station au moment de l'observation
01:00 16.7 16.7 15.5 SE 3.7 -- 7.4 93 1003.6(-2.2/3h) 20 -- -- NA
00:00 17.3 17.3 15.5 S 3.7 -- 11.1 89 1004.8(-1.5/3h) 10 -- 0.1/6h
Il y a de la pluie faible et continue à la station au moment de l'observation

1 Coordinated Universal Time. Actuellement il est 23:00 locale et 21:00 UTC.

2 Le vent souffle depuis la direction indiquée vers la direction oposée.

3 Les rafales max. sont disponible 40 min après l'heure du relevé.

4 Pour les stations d'altitude (plus de 600m) le géopotentiel du niveau le plus proche de la pression obligatoire est indiqué.

5 Les stations disposant d'un diffuseur peuvent indiquer "trace". Cela signifie que des précipitations ont touchés le sol mais que la quantité est inférieure à 0.1 mm.

Récapitulatif de la journée
Température [°C] Vent [km/h] Ensoleillement4 [h] Precipitations totale5 [mm] Pression [Hpa]
Min1 Max.2 Moy.3 Max. Min Max.
16.2 19.8 0 35.2 0 h 0 min 0 1001.7 1011.7

1 Température minimale relevée entre 18:00 UTC la veille et 18:00 UTC le jour donné.

2 Température maximale relevée entre 06:00 UTC le jour donné et 06:00 UTC le lendemain.

3 Vent moyen de la journée basé sur les relevés horaires.

4 Ensoleillement en heures relevé entre 06:00 UTC la veille et 06:00 UTC le jour donné.

5 Précipitations totales tombées entre 06:00 UTC la jour donné et 06:00 UTC le lendemain.

Graphiques horaires